Time;durP1;ratioP1;P1;durP2;ratioP2;P2;SDS_P1;SDS_P2;PMS_P1;PMS_P2;Temp;Humidity;BMP_temperature;BMP_pressure;BME280_temperature;BME280_humidity;BME280_pressure;Samples;Min_cycle;Max_cycle;Signal;HPM_P1;HPM_P2
2022/09/20 00:00:32;;;;;;;9.00;7.70;;;18.80;54.20;;;;;;5074327;28;20213;-67
2022/09/20 00:02:59;;;;;;;10.00;7.05;;;18.70;54.10;;;;;;5056117;28;20248;-67
2022/09/20 00:05:26;;;;;;;8.20;6.20;;;18.80;54.20;;;;;;5074152;28;20237;-67
2022/09/20 00:07:53;;;;;;;8.88;7.03;;;18.80;54.20;;;;;;5055267;28;20238;-67
2022/09/20 00:10:22;;;;;;;8.07;6.65;;;18.70;54.10;;;;;;5056003;28;20219;-67
2022/09/20 00:12:50;;;;;;;9.38;7.15;;;18.70;54.10;;;;;;5073870;28;20275;-68
2022/09/20 00:15:17;;;;;;;8.38;6.55;;;18.70;54.10;;;;;;5055991;28;20202;-67
2022/09/20 00:17:44;;;;;;;8.10;6.47;;;18.70;54.10;;;;;;5055918;28;20286;-67
2022/09/20 00:20:11;;;;;;;7.45;6.20;;;18.70;54.10;;;;;;5073677;28;20202;-67
2022/09/20 00:22:38;;;;;;;7.82;6.13;;;18.70;54.10;;;;;;5055820;28;20195;-67
2022/09/20 00:25:06;;;;;;;6.72;5.38;;;18.70;54.10;;;;;;5055688;28;20571;-67
2022/09/20 00:27:33;;;;;;;7.30;5.60;;;18.70;54.00;;;;;;5073514;28;20582;-68
2022/09/20 00:30:02;;;;;;;8.65;5.72;;;18.70;54.00;;;;;;5073490;28;20713;-67
2022/09/20 00:32:29;;;;;;;6.78;5.30;;;18.70;54.00;;;;;;5055729;28;20229;-67
2022/09/20 00:35:06;;;;;;;5.63;5.13;;;18.70;54.10;;;;;;5073396;28;20190;-67
2022/09/20 00:37:33;;;;;;;6.68;5.18;;;18.70;54.00;;;;;;5073554;28;20651;-67
2022/09/20 00:40:01;;;;;;;7.72;5.43;;;18.70;54.00;;;;;;5055348;28;20243;-67
2022/09/20 00:42:28;;;;;;;6.28;5.00;;;18.70;54.00;;;;;;5073450;28;20193;-67
2022/09/20 00:44:57;;;;;;;6.10;5.40;;;18.70;54.00;;;;;;5073463;28;20191;-67
2022/09/20 00:47:32;;;;;;;5.25;4.72;;;18.70;54.00;;;;;;5055387;28;20275;-67
2022/09/20 00:50:03;;;;;;;7.28;4.70;;;18.70;54.00;;;;;;5055384;28;20210;-67
2022/09/20 00:52:30;;;;;;;5.15;4.57;;;18.70;54.00;;;;;;5073685;28;20228;-67
2022/09/20 00:54:57;;;;;;;5.40;4.30;;;18.70;54.00;;;;;;5055370;28;20199;-67
2022/09/20 00:57:24;;;;;;;6.22;4.75;;;18.70;54.00;;;;;;5055358;28;20575;-67
2022/09/20 00:59:51;;;;;;;5.43;4.47;;;18.70;54.00;;;;;;5073381;28;20291;-67
2022/09/20 01:02:20;;;;;;;5.63;4.28;;;18.70;54.10;;;;;;5055250;28;20195;-67
2022/09/20 01:04:49;;;;;;;4.78;4.30;;;18.70;54.00;;;;;;5055267;28;20198;-67
2022/09/20 01:07:17;;;;;;;5.30;4.32;;;18.70;54.00;;;;;;5073085;28;20198;-67
2022/09/20 01:14:45;;;;;;;4.60;4.00;;;18.70;54.60;;;;;;5011719;28;20207;-53
2022/09/20 01:17:12;;;;;;;4.50;3.78;;;18.70;54.00;;;;;;5013208;28;20666;-53
2022/09/20 01:19:42;;;;;;;4.70;3.78;;;18.60;54.00;;;;;;5016388;28;20364;-53
2022/09/20 01:22:14;;;;;;;3.88;3.42;;;18.60;54.00;;;;;;5017562;28;20184;-53
2022/09/20 01:24:44;;;;;;;4.68;3.83;;;18.60;54.00;;;;;;5017565;28;20205;-53
2022/09/20 01:27:15;;;;;;;4.57;3.47;;;18.60;54.00;;;;;;5015850;28;20203;-53
2022/09/20 01:30:04;;;;;;;4.63;3.50;;;18.70;54.60;;;;;;5017104;28;20212;-53
2022/09/20 01:32:36;;;;;;;5.85;3.78;;;18.60;54.00;;;;;;5017386;28;20181;-53
2022/09/20 01:35:03;;;;;;;3.72;3.30;;;18.60;54.00;;;;;;5015820;28;20201;-53
2022/09/20 01:37:33;;;;;;;3.53;3.22;;;18.60;53.90;;;;;;5016995;28;20188;-53
2022/09/20 01:40:03;;;;;;;5.55;3.60;;;18.60;54.00;;;;;;4999312;28;20220;-53
2022/09/20 01:42:33;;;;;;;3.58;3.28;;;18.60;54.00;;;;;;5017188;28;20200;-53
2022/09/20 01:45:02;;;;;;;3.53;3.05;;;18.60;53.90;;;;;;5015594;28;20553;-53
2022/09/20 01:47:34;;;;;;;3.42;3.00;;;18.60;54.00;;;;;;5016915;28;20728;-53
2022/09/20 01:50:07;;;;;;;4.13;3.60;;;18.60;53.90;;;;;;5015578;28;20224;-53
2022/09/20 01:52:48;;;;;;;3.88;3.38;;;18.60;53.90;;;;;;5016876;28;20638;-53
2022/09/20 01:55:38;;;;;;;5.28;3.80;;;18.60;53.90;;;;;;5016816;28;20177;-53
2022/09/20 01:58:43;;;;;;;3.85;3.00;;;18.60;53.90;;;;;;4999114;28;20197;-53
2022/09/20 02:01:33;;;;;;;3.97;3.08;;;18.60;53.80;;;;;;5001978;28;20278;-53
2022/09/20 02:04:33;;;;;;;3.10;2.80;;;18.60;53.90;;;;;;4986937;28;20235;-53
2022/09/20 02:07:12;;;;;;;3.60;3.15;;;18.60;53.90;;;;;;5015248;28;20279;-53
2022/09/20 02:10:01;;;;;;;4.13;3.08;;;18.60;54.00;;;;;;5015038;28;20709;-53
2022/09/20 02:12:55;;;;;;;3.75;2.70;;;18.60;54.00;;;;;;4998779;28;20207;-53
2022/09/20 02:16:06;;;;;;;4.10;2.95;;;18.60;54.00;;;;;;5016685;28;20176;-53
2022/09/20 02:18:43;;;;;;;3.15;2.70;;;18.60;54.00;;;;;;4955663;29;20218;-53
2022/09/20 02:21:16;;;;;;;2.67;2.47;;;18.60;54.00;;;;;;4956231;29;20287;-53
2022/09/20 02:23:46;;;;;;;3.00;2.70;;;18.60;53.90;;;;;;4988968;28;20666;-53
2022/09/20 02:26:36;;;;;;;3.53;2.88;;;18.60;53.90;;;;;;5016447;28;20189;-53
2022/09/20 02:29:12;;;;;;;3.33;2.95;;;18.60;54.60;;;;;;5031734;22;20302;-64
2022/09/20 02:31:58;;;;;;;3.63;3.00;;;18.60;54.00;;;;;;5075462;28;20178;-64
2022/09/20 02:34:46;;;;;;;4.05;2.85;;;18.60;54.00;;;;;;5075784;28;20628;-64
2022/09/20 02:37:25;;;;;;;3.70;2.80;;;18.60;54.00;;;;;;5075830;28;20201;-64
2022/09/20 02:39:56;;;;;;;3.17;2.60;;;18.60;54.20;;;;;;5057772;28;20214;-64
2022/09/20 02:42:25;;;;;;;2.65;2.30;;;18.60;54.00;;;;;;5075708;28;20190;-64
2022/09/20 02:44:59;;;;;;;4.40;2.75;;;18.50;54.00;;;;;;5057686;28;20573;-64
2022/09/20 02:47:31;;;;;;;2.78;2.47;;;18.50;54.00;;;;;;5075632;28;20214;-64
2022/09/20 02:50:08;;;;;;;2.72;2.53;;;18.50;54.60;;;;;;5075701;28;20205;-64
2022/09/20 02:52:40;;;;;;;2.97;2.67;;;18.60;54.00;;;;;;5057646;28;20205;-64
2022/09/20 02:55:10;;;;;;;2.92;2.42;;;18.50;54.00;;;;;;5075492;28;20176;-64
2022/09/20 02:57:58;;;;;;;2.88;2.60;;;18.50;54.00;;;;;;5057396;28;20206;-64
2022/09/20 03:00:27;;;;;;;3.13;2.63;;;18.60;54.10;;;;;;5057346;28;20371;-64
2022/09/20 03:03:03;;;;;;;3.13;2.50;;;18.50;54.00;;;;;;5075236;28;20194;-64
2022/09/20 03:05:32;;;;;;;2.38;2.17;;;18.50;54.00;;;;;;5057288;28;20256;-64
2022/09/20 03:08:14;;;;;;;2.60;2.38;;;18.50;54.00;;;;;;5075133;28;20210;-64
2022/09/20 03:10:45;;;;;;;2.50;2.22;;;18.50;53.90;;;;;;5057203;28;20214;-64
2022/09/20 03:13:18;;;;;;;2.45;2.25;;;18.50;53.90;;;;;;5057223;28;20191;-64
2022/09/20 03:15:53;;;;;;;2.70;2.50;;;18.50;54.00;;;;;;5057078;28;20232;-64
2022/09/20 03:18:27;;;;;;;3.40;2.60;;;18.60;54.20;;;;;;5074973;28;20624;-64
2022/09/20 03:20:57;;;;;;;3.28;2.97;;;18.60;54.30;;;;;;5057032;28;20229;-64
2022/09/20 03:23:37;;;;;;;3.20;2.90;;;18.50;54.10;;;;;;5074893;28;20663;-64
2022/09/20 03:26:09;;;;;;;2.58;2.38;;;18.60;54.20;;;;;;5075226;28;20179;-64
2022/09/20 03:28:58;;;;;;;2.70;2.50;;;18.60;54.20;;;;;;5075026;28;20578;-64
2022/09/20 03:31:32;;;;;;;3.35;3.00;;;18.60;54.20;;;;;;5074681;28;20210;-64
2022/09/20 03:34:04;;;;;;;2.90;2.60;;;18.70;54.00;;;;;;5056766;28;20200;-64
2022/09/20 03:36:43;;;;;;;2.72;2.53;;;18.70;54.00;;;;;;5074956;28;20726;-64
2022/09/20 03:39:31;;;;;;;2.97;2.50;;;18.80;53.70;;;;;;5056644;28;20636;-64
2022/09/20 03:42:18;;;;;;;2.53;2.30;;;18.80;53.60;;;;;;5055649;28;20286;-64
2022/09/20 03:44:58;;;;;;;2.60;2.40;;;18.90;53.70;;;;;;5056616;28;20186;-64
2022/09/20 03:47:35;;;;;;;3.17;2.60;;;18.90;53.60;;;;;;5074674;28;20183;-64
2022/09/20 03:50:23;;;;;;;4.00;2.50;;;18.90;53.40;;;;;;5074333;28;20219;-64
2022/09/20 03:53:03;;;;;;;2.95;2.53;;;19.00;53.40;;;;;;5056367;28;20226;-64
2022/09/20 03:55:45;;;;;;;2.55;2.35;;;19.00;53.40;;;;;;5074245;28;20175;-64
2022/09/20 03:58:22;;;;;;;2.50;2.28;;;19.00;53.30;;;;;;5056411;28;20191;-67
2022/09/20 04:01:05;;;;;;;2.30;2.10;;;19.00;53.30;;;;;;5057184;28;20218;-67
2022/09/20 04:03:36;;;;;;;2.85;2.28;;;19.00;53.30;;;;;;5056276;28;20632;-66
2022/09/20 04:06:14;;;;;;;2.53;2.30;;;19.00;53.30;;;;;;5056348;28;20187;-66
2022/09/20 04:08:50;;;;;;;2.30;2.10;;;19.00;53.30;;;;;;5056146;28;20229;-67
2022/09/20 04:11:23;;;;;;;2.03;1.92;;;19.00;53.30;;;;;;5074044;28;20210;-66
2022/09/20 04:13:52;;;;;;;2.63;2.13;;;19.00;53.30;;;;;;5056154;28;20649;-67
2022/09/20 04:16:25;;;;;;;2.47;2.05;;;19.00;53.30;;;;;;5073885;28;20186;-66
2022/09/20 04:18:56;;;;;;;2.65;2.22;;;19.00;53.30;;;;;;5056066;28;20270;-67
2022/09/20 04:21:27;;;;;;;2.33;2.00;;;19.00;53.30;;;;;;5055790;28;20215;-66
2022/09/20 04:23:59;;;;;;;2.40;2.20;;;19.00;53.40;;;;;;5056072;28;20195;-66
2022/09/20 04:26:28;;;;;;;2.35;2.10;;;18.90;53.30;;;;;;5055778;28;20272;-67
2022/09/20 04:31:30;;;;;;;2.50;2.30;;;18.90;53.30;;;;;;5060161;22;20234;-66
2022/09/20 04:33:57;;;;;;;2.13;2.00;;;18.90;53.40;;;;;;5035718;28;20222;-65
2022/09/20 04:36:35;;;;;;;2.40;2.20;;;18.90;53.40;;;;;;5053625;28;20188;-65
2022/09/20 04:39:14;;;;;;;2.92;2.20;;;18.90;53.50;;;;;;5035571;28;20206;-65
2022/09/20 04:42:27;;;;;;;2.40;2.20;;;18.90;53.50;;;;;;5053834;28;20167;-65
2022/09/20 04:45:13;;;;;;;2.33;2.13;;;18.90;53.70;;;;;;5035509;28;20199;-65
2022/09/20 04:48:07;;;;;;;2.13;1.95;;;18.90;53.70;;;;;;5053462;28;20263;-65
2022/09/20 04:51:13;;;;;;;2.33;2.13;;;18.80;53.60;;;;;;5033538;28;20230;-65
2022/09/20 04:54:03;;;;;;;1.85;1.75;;;18.80;53.60;;;;;;5018743;28;20203;-65
2022/09/20 04:56:37;;;;;;;2.78;1.85;;;18.80;53.70;;;;;;5053658;28;20258;-65
2022/09/20 04:59:06;;;;;;;2.95;2.05;;;18.80;53.60;;;;;;5053358;28;20265;-65
2022/09/20 05:02:06;;;;;;;2.20;2.00;;;18.80;53.70;;;;;;5035336;28;20617;-65
2022/09/20 05:05:14;;;;;;;1.92;1.80;;;18.80;53.70;;;;;;5035222;28;20249;-65
2022/09/20 05:08:19;;;;;;;2.15;1.90;;;18.80;53.70;;;;;;5035320;28;20225;-65
2022/09/20 05:11:16;;;;;;;2.63;1.90;;;18.80;53.60;;;;;;5053079;28;20288;-65
2022/09/20 05:13:54;;;;;;;2.45;1.80;;;18.80;54.20;;;;;;5035559;28;20187;-65
2022/09/20 05:16:23;;;;;;;2.35;1.90;;;18.80;53.60;;;;;;5053761;28;20187;-65
2022/09/20 05:19:07;;;;;;;2.05;1.90;;;18.80;53.60;;;;;;5053523;28;20187;-66
2022/09/20 05:21:46;;;;;;;2.42;1.80;;;18.80;53.70;;;;;;5035893;28;20195;-65
2022/09/20 05:24:22;;;;;;;6.63;2.00;;;18.80;54.20;;;;;;5053478;28;20629;-65
2022/09/20 05:26:57;;;;;;;1.88;1.65;;;18.80;54.80;;;;;;5053050;28;20179;-65
2022/09/20 05:29:26;;;;;;;4.47;1.85;;;18.80;55.00;;;;;;5034878;28;20226;-66
2022/09/20 05:31:56;;;;;;;2.33;1.90;;;18.80;55.10;;;;;;5035139;28;20195;-65
2022/09/20 05:34:26;;;;;;;3.17;1.75;;;18.80;55.20;;;;;;5053034;28;20213;-66
2022/09/20 05:36:56;;;;;;;1.95;1.73;;;18.80;55.10;;;;;;5052878;28;20192;-66
2022/09/20 05:39:36;;;;;;;3.13;1.67;;;18.80;55.10;;;;;;5035049;28;20234;-65
2022/09/20 05:42:15;;;;;;;2.35;1.90;;;18.80;55.00;;;;;;5035096;28;20664;-65
2022/09/20 05:44:55;;;;;;;1.73;1.60;;;18.80;55.00;;;;;;5052951;28;20175;-65
2022/09/20 05:47:28;;;;;;;2.03;1.80;;;18.80;55.00;;;;;;5052706;28;20234;-65
2022/09/20 05:49:58;;;;;;;1.98;1.50;;;18.80;55.00;;;;;;5052791;28;20215;-65
2022/09/20 05:52:32;;;;;;;2.67;1.60;;;18.80;55.10;;;;;;5034930;28;20279;-65
2022/09/20 05:55:20;;;;;;;1.60;1.50;;;18.90;55.20;;;;;;5035006;28;20210;-66
2022/09/20 05:58:00;;;;;;;2.17;1.55;;;18.90;54.60;;;;;;5052844;28;20184;-66
2022/09/20 06:00:29;;;;;;;2.10;1.50;;;18.90;53.80;;;;;;5034869;28;20211;-65
2022/09/20 06:02:58;;;;;;;2.20;1.63;;;18.90;53.70;;;;;;5053027;28;20191;-66
2022/09/20 06:05:29;;;;;;;1.90;1.30;;;18.90;53.50;;;;;;5035956;28;20192;-66
2022/09/20 06:08:11;;;;;;;2.53;1.40;;;18.90;53.80;;;;;;5039085;28;20191;-66
2022/09/20 06:10:56;;;;;;;2.88;1.60;;;18.90;53.20;;;;;;5038358;28;20251;-66
2022/09/20 06:13:44;;;;;;;2.45;1.60;;;18.90;53.10;;;;;;5056404;28;20245;-65
2022/09/20 06:16:14;;;;;;;2.20;1.50;;;18.90;53.00;;;;;;5056622;28;20187;-66
2022/09/20 06:18:43;;;;;;;2.05;1.25;;;18.90;52.80;;;;;;5039025;28;20639;-67
2022/09/20 06:21:17;;;;;;;3.30;1.67;;;19.00;52.70;;;;;;5038869;28;20223;-66
2022/09/20 06:23:44;;;;;;;1.85;1.50;;;19.00;52.80;;;;;;5039707;28;20574;-66
2022/09/20 06:26:16;;;;;;;1.92;1.33;;;19.00;52.80;;;;;;5038863;28;20206;-65
2022/09/20 06:28:45;;;;;;;1.52;1.40;;;19.10;52.90;;;;;;5038229;28;20200;-64
2022/09/20 06:31:14;;;;;;;2.00;1.55;;;19.10;53.00;;;;;;5037967;28;20227;-65
2022/09/20 06:33:44;;;;;;;1.67;1.35;;;19.10;52.90;;;;;;5038142;28;20196;-65
2022/09/20 06:41:51;;;;;;;1.77;1.42;;;19.30;52.70;;;;;;5055736;28;20187;-65
2022/09/20 06:44:18;;;;;;;2.30;1.50;;;19.30;52.50;;;;;;5037805;28;20576;-65
2022/09/20 06:46:46;;;;;;;1.63;1.27;;;19.40;52.50;;;;;;5055537;28;20191;-65
2022/09/20 06:49:15;;;;;;;1.80;1.30;;;19.50;52.20;;;;;;5037606;28;20215;-65
2022/09/20 06:51:42;;;;;;;1.73;1.35;;;19.50;52.00;;;;;;5055544;28;20183;-66
2022/09/20 06:54:14;;;;;;;2.08;1.38;;;19.60;51.90;;;;;;5037670;28;20238;-66
2022/09/20 06:56:41;;;;;;;3.10;1.48;;;19.70;51.70;;;;;;5055508;28;20622;-65
2022/09/20 06:59:11;;;;;;;1.58;1.17;;;19.80;51.60;;;;;;5055319;28;20229;-65
2022/09/20 07:01:38;;;;;;;1.83;1.30;;;19.80;51.50;;;;;;5055432;28;20226;-65
2022/09/20 07:04:06;;;;;;;2.45;1.50;;;19.90;51.40;;;;;;5037451;28;20298;-65
2022/09/20 07:06:33;;;;;;;1.50;1.10;;;20.00;51.20;;;;;;5055643;28;20195;-65
2022/09/20 07:09:00;;;;;;;2.90;1.25;;;20.10;50.90;;;;;;5037215;28;20195;-65
2022/09/20 07:11:27;;;;;;;1.60;1.50;;;20.20;50.70;;;;;;5037266;28;20253;-65
2022/09/20 07:13:55;;;;;;;1.40;1.30;;;20.40;50.50;;;;;;5055150;28;20647;-65
2022/09/20 07:16:25;;;;;;;1.67;1.35;;;20.40;50.10;;;;;;5037013;28;20199;-65
2022/09/20 07:18:52;;;;;;;1.30;1.20;;;20.60;50.00;;;;;;5054945;28;20537;-64
2022/09/20 07:21:19;;;;;;;1.67;1.50;;;20.60;49.80;;;;;;5054939;28;20235;-66
2022/09/20 07:23:47;;;;;;;1.40;1.30;;;20.60;49.80;;;;;;5054913;28;20218;-65
2022/09/20 07:26:17;;;;;;;2.25;1.40;;;20.60;49.80;;;;;;5055070;28;20202;-65
2022/09/20 07:28:44;;;;;;;1.48;1.38;;;20.60;49.80;;;;;;5037025;28;20582;-65
2022/09/20 07:31:12;;;;;;;2.08;1.33;;;20.60;49.90;;;;;;5054730;28;20215;-65
2022/09/20 07:33:40;;;;;;;1.40;1.30;;;20.50;49.90;;;;;;5054822;28;20316;-65
2022/09/20 07:36:07;;;;;;;1.98;1.23;;;20.50;50.00;;;;;;5054986;28;20245;-65
2022/09/20 07:38:35;;;;;;;1.70;1.30;;;20.50;50.00;;;;;;5036689;28;20206;-65
2022/09/20 07:41:02;;;;;;;1.70;1.42;;;20.40;50.00;;;;;;5036776;28;20215;-65
2022/09/20 07:43:30;;;;;;;1.88;1.30;;;20.40;50.00;;;;;;5054548;28;20191;-65
2022/09/20 07:45:58;;;;;;;1.65;1.48;;;20.50;50.00;;;;;;5054495;28;20675;-65
2022/09/20 07:48:27;;;;;;;1.75;1.30;;;20.50;50.00;;;;;;5036647;28;20205;-65
2022/09/20 07:50:56;;;;;;;2.40;1.60;;;20.50;49.90;;;;;;5054364;28;20315;-65
2022/09/20 07:53:24;;;;;;;2.63;1.25;;;20.60;50.00;;;;;;5036793;28;20277;-65
2022/09/20 07:56:01;;;;;;;1.98;1.40;;;20.70;49.80;;;;;;5055266;28;20192;-65
2022/09/20 07:58:28;;;;;;;3.55;1.60;;;20.80;49.50;;;;;;5054796;28;20245;-66
2022/09/20 08:00:55;;;;;;;2.03;1.50;;;20.90;49.30;;;;;;5036284;28;20251;-65
2022/09/20 08:03:22;;;;;;;1.33;1.13;;;21.10;49.00;;;;;;5036321;28;20215;-65
2022/09/20 08:05:49;;;;;;;1.50;1.40;;;21.20;48.60;;;;;;5054401;28;20204;-65
2022/09/20 08:08:18;;;;;;;2.53;1.38;;;21.30;48.60;;;;;;5036272;28;20199;-65
2022/09/20 08:10:45;;;;;;;1.77;1.52;;;21.30;48.40;;;;;;5036116;28;20685;-65
2022/09/20 08:13:16;;;;;;;1.73;1.30;;;21.30;48.40;;;;;;5037048;28;20188;-65
2022/09/20 08:15:43;;;;;;;1.75;1.63;;;21.30;48.40;;;;;;5054071;28;20203;-65
2022/09/20 08:18:10;;;;;;;2.15;1.30;;;21.20;48.50;;;;;;5054186;28;20669;-65
2022/09/20 08:20:37;;;;;;;1.55;1.30;;;21.10;48.60;;;;;;5053722;28;20298;-65
2022/09/20 08:23:04;;;;;;;2.08;1.50;;;21.10;48.70;;;;;;5053777;28;20665;-65
2022/09/20 08:25:33;;;;;;;2.10;1.40;;;21.00;48.80;;;;;;5035917;28;20245;-65
2022/09/20 08:28:00;;;;;;;2.13;1.50;;;21.10;48.90;;;;;;5053206;28;20187;-65
2022/09/20 08:30:27;;;;;;;1.60;1.30;;;21.30;48.70;;;;;;5053358;28;20215;-65
2022/09/20 08:32:54;;;;;;;1.70;1.27;;;21.40;48.50;;;;;;5053760;28;20184;-66
2022/09/20 08:35:24;;;;;;;1.90;1.35;;;21.50;48.30;;;;;;5053632;28;20669;-65
2022/09/20 08:37:53;;;;;;;1.58;1.30;;;21.50;48.90;;;;;;5053604;28;20618;-65
2022/09/20 08:40:22;;;;;;;1.50;1.40;;;21.50;48.20;;;;;;5035629;28;20269;-65
2022/09/20 08:42:53;;;;;;;1.52;1.42;;;21.50;48.00;;;;;;5053703;28;20661;-66
2022/09/20 08:45:21;;;;;;;1.90;1.60;;;21.60;47.70;;;;;;5035662;28;20188;-65
2022/09/20 08:47:49;;;;;;;2.67;1.48;;;21.70;47.60;;;;;;5053613;28;20191;-65
2022/09/20 08:50:18;;;;;;;1.70;1.20;;;21.70;47.60;;;;;;5035373;28;20269;-65
2022/09/20 08:52:47;;;;;;;2.10;1.50;;;21.60;47.60;;;;;;5035623;28;20691;-65
2022/09/20 08:55:16;;;;;;;1.40;1.30;;;21.60;47.80;;;;;;5053434;28;20183;-65
2022/09/20 08:57:43;;;;;;;2.17;1.40;;;21.50;47.80;;;;;;5053269;28;20184;-65
2022/09/20 09:00:16;;;;;;;1.70;1.60;;;21.50;47.80;;;;;;5053490;28;20282;-65
2022/09/20 09:02:44;;;;;;;1.67;1.20;;;21.50;48.00;;;;;;5035815;28;20203;-65
2022/09/20 09:05:21;;;;;;;2.65;1.50;;;21.60;47.80;;;;;;5053786;28;20241;-65
2022/09/20 09:07:48;;;;;;;2.22;1.48;;;21.80;47.60;;;;;;5053371;28;20198;-65
2022/09/20 09:10:17;;;;;;;1.67;1.23;;;21.90;47.30;;;;;;5035293;28;20215;-65
2022/09/20 09:12:45;;;;;;;3.13;1.60;;;22.00;47.10;;;;;;5035517;28;20195;-65
2022/09/20 09:15:25;;;;;;;2.85;1.55;;;22.10;46.70;;;;;;5053361;28;20210;-65
2022/09/20 09:17:53;;;;;;;2.20;1.50;;;22.20;46.50;;;;;;5035354;28;20671;-65
2022/09/20 09:20:21;;;;;;;2.03;1.40;;;22.20;46.50;;;;;;5052974;28;20199;-65
2022/09/20 09:22:49;;;;;;;2.80;1.73;;;22.20;46.60;;;;;;5035199;28;20199;-65
2022/09/20 09:25:23;;;;;;;1.75;1.33;;;22.10;46.70;;;;;;5035192;28;20191;-65
2022/09/20 09:27:55;;;;;;;2.50;1.42;;;21.90;46.80;;;;;;5035185;28;20287;-65
2022/09/20 09:30:25;;;;;;;2.08;1.33;;;21.90;47.10;;;;;;5035022;28;20230;-65
2022/09/20 09:32:52;;;;;;;2.38;1.33;;;21.80;47.20;;;;;;5035148;28;20199;-65
2022/09/20 09:35:26;;;;;;;2.40;1.50;;;21.70;47.10;;;;;;5052967;28;20282;-65
2022/09/20 09:37:54;;;;;;;2.28;1.42;;;21.70;47.40;;;;;;5035031;28;20205;-65
2022/09/20 09:40:21;;;;;;;1.70;1.20;;;21.60;47.50;;;;;;5037643;28;20589;-66
2022/09/20 09:42:50;;;;;;;2.50;1.50;;;21.50;47.50;;;;;;5056845;28;20191;-65
2022/09/20 09:45:37;;;;;;;2.10;1.50;;;21.50;47.70;;;;;;5056821;28;20608;-65
2022/09/20 09:48:18;;;;;;;1.58;1.33;;;21.50;47.80;;;;;;5038946;28;20222;-65
2022/09/20 09:50:46;;;;;;;2.05;1.30;;;21.40;47.80;;;;;;5057214;28;20207;-65
2022/09/20 09:53:15;;;;;;;3.00;1.60;;;21.50;48.00;;;;;;5038875;28;20207;-65
2022/09/20 09:56:10;;;;;;;3.25;1.58;;;21.40;47.90;;;;;;5038806;28;20572;-65
2022/09/20 09:58:47;;;;;;;1.77;1.40;;;21.40;47.90;;;;;;5020905;28;20554;-65
2022/09/20 10:01:26;;;;;;;3.58;1.75;;;21.50;48.00;;;;;;5056472;28;20586;-65
2022/09/20 10:03:56;;;;;;;2.53;1.63;;;21.50;47.80;;;;;;5038513;28;20282;-65
2022/09/20 10:06:26;;;;;;;1.80;1.40;;;21.50;47.70;;;;;;5056772;28;20222;-65
2022/09/20 10:09:00;;;;;;;3.35;1.65;;;21.50;47.60;;;;;;5038479;28;20649;-65
2022/09/20 10:11:32;;;;;;;2.00;1.27;;;21.50;47.60;;;;;;5038313;28;20236;-65
2022/09/20 10:14:05;;;;;;;2.25;1.50;;;21.50;47.60;;;;;;5038374;28;20191;-65
2022/09/20 10:16:40;;;;;;;1.45;1.08;;;21.50;47.70;;;;;;5056330;28;20222;-65
2022/09/20 10:19:09;;;;;;;1.95;1.30;;;21.50;47.70;;;;;;5056050;28;20193;-65
2022/09/20 10:21:42;;;;;;;2.33;1.40;;;21.50;47.70;;;;;;5038336;28;20245;-65
2022/09/20 10:24:16;;;;;;;2.00;1.50;;;21.50;47.60;;;;;;5056348;28;20183;-65
2022/09/20 10:26:52;;;;;;;1.98;1.50;;;21.50;47.60;;;;;;5056111;28;20176;-65
2022/09/20 10:29:25;;;;;;;2.38;1.58;;;21.50;47.50;;;;;;5056048;28;20241;-65
2022/09/20 10:31:57;;;;;;;1.85;1.48;;;21.60;47.40;;;;;;5056195;28;20195;-65
2022/09/20 10:34:38;;;;;;;2.95;1.45;;;21.60;47.40;;;;;;5039133;28;20196;-65
2022/09/20 10:37:06;;;;;;;3.83;1.85;;;21.60;47.30;;;;;;5037976;28;20253;-65
2022/09/20 10:39:34;;;;;;;2.50;1.58;;;21.60;47.20;;;;;;5055688;28;20742;-65
2022/09/20 10:45:11;;;;;;;2.85;1.50;;;21.60;47.10;;;;;;5037737;28;20278;-65
2022/09/20 10:47:43;;;;;;;1.98;1.40;;;21.60;47.10;;;;;;5037844;28;20611;-65
2022/09/20 10:50:18;;;;;;;2.78;1.50;;;21.60;47.10;;;;;;5055451;28;20246;-65
2022/09/20 10:52:55;;;;;;;1.67;1.25;;;21.50;47.10;;;;;;5055273;28;20175;-65
2022/09/20 10:55:28;;;;;;;2.95;1.60;;;21.50;47.20;;;;;;5037812;28;20188;-65
2022/09/20 10:58:14;;;;;;;2.55;1.40;;;21.50;47.40;;;;;;5060260;22;20322;-72
2022/09/20 11:00:43;;;;;;;2.80;1.55;;;21.50;47.40;;;;;;5003016;28;20196;-72
2022/09/20 11:03:20;;;;;;;2.55;1.63;;;21.50;47.50;;;;;;5016921;28;20247;-72
2022/09/20 11:05:54;;;;;;;2.67;1.60;;;21.50;47.40;;;;;;5015505;28;20208;-72
2022/09/20 11:08:25;;;;;;;2.50;1.50;;;21.50;47.40;;;;;;5015644;28;20220;-72
2022/09/20 11:10:53;;;;;;;2.58;1.50;;;21.50;47.40;;;;;;5014848;28;20709;-72
2022/09/20 11:13:24;;;;;;;2.83;1.85;;;21.60;47.40;;;;;;5014930;28;20205;-72
2022/09/20 11:15:54;;;;;;;2.83;1.50;;;21.60;47.40;;;;;;5014891;28;20220;-72
2022/09/20 11:18:24;;;;;;;2.63;1.58;;;21.60;47.30;;;;;;5014624;28;20317;-72
2022/09/20 11:20:56;;;;;;;2.00;1.42;;;21.60;47.10;;;;;;5016457;28;20185;-72
2022/09/20 11:23:25;;;;;;;2.50;1.50;;;21.70;47.10;;;;;;4998903;28;20276;-72
2022/09/20 11:25:53;;;;;;;3.10;1.50;;;21.70;47.10;;;;;;5014908;28;20207;-72
2022/09/20 11:28:23;;;;;;;2.00;1.45;;;21.70;47.10;;;;;;5015303;28;20294;-72
2022/09/20 11:30:55;;;;;;;2.13;1.30;;;21.90;47.10;;;;;;5014391;28;20248;-72
2022/09/20 11:33:26;;;;;;;2.45;1.40;;;21.90;46.90;;;;;;5014666;28;20193;-72
2022/09/20 11:35:56;;;;;;;2.30;1.40;;;21.90;46.70;;;;;;5014487;28;20243;-72
2022/09/20 11:38:25;;;;;;;2.55;1.35;;;21.90;46.70;;;;;;5014358;28;20200;-72
2022/09/20 11:40:55;;;;;;;1.38;1.23;;;22.00;46.60;;;;;;5014268;28;20251;-72
2022/09/20 11:43:24;;;;;;;2.33;1.35;;;22.00;46.60;;;;;;5014361;28;20196;-72
2022/09/20 11:45:53;;;;;;;2.47;1.33;;;22.00;46.50;;;;;;5014234;28;20193;-72
2022/09/20 11:48:24;;;;;;;1.67;1.33;;;22.00;46.40;;;;;;5014478;28;20659;-72
2022/09/20 11:51:16;;;;;;;2.58;1.20;;;22.00;46.40;;;;;;5014066;28;20216;-72
2022/09/20 11:54:09;;;;;;;2.50;1.48;;;22.00;46.40;;;;;;5005919;28;20283;-72
2022/09/20 11:56:36;;;;;;;2.13;1.30;;;22.00;47.00;;;;;;5026605;28;20212;-72
2022/09/20 11:59:06;;;;;;;3.03;1.70;;;22.00;46.40;;;;;;5015176;28;20212;-72
2022/09/20 12:01:34;;;;;;;2.38;1.20;;;22.10;46.40;;;;;;5014066;28;20295;-72
2022/09/20 12:04:05;;;;;;;2.42;1.40;;;22.10;46.40;;;;;;5013972;28;20232;-72
2022/09/20 12:06:33;;;;;;;2.00;1.20;;;22.10;46.30;;;;;;5015053;28;20591;-72
2022/09/20 12:09:02;;;;;;;2.33;1.40;;;22.10;46.30;;;;;;4997392;28;20271;-72
2022/09/20 12:11:30;;;;;;;1.98;1.30;;;22.10;46.90;;;;;;5013836;28;20590;-72
2022/09/20 12:14:02;;;;;;;2.42;1.40;;;22.10;46.10;;;;;;5013710;28;20250;-72
2022/09/20 12:16:37;;;;;;;2.35;1.30;;;22.10;45.80;;;;;;5013504;28;20686;-72
2022/09/20 12:19:07;;;;;;;2.45;1.25;;;22.10;46.00;;;;;;5013482;28;20323;-72
2022/09/20 12:22:07;;;;;;;1.88;1.40;;;22.10;46.00;;;;;;5013451;28;20648;-72
2022/09/20 12:24:35;;;;;;;1.85;1.30;;;22.10;46.00;;;;;;5013538;28;20212;-72
2022/09/20 12:27:06;;;;;;;2.97;1.23;;;22.00;45.90;;;;;;5013524;28;20301;-72
2022/09/20 12:30:09;;;;;;;2.60;1.40;;;22.00;45.90;;;;;;5013387;28;20252;-72
2022/09/20 12:32:57;;;;;;;2.17;1.30;;;22.00;46.00;;;;;;5012800;28;20216;-72
2022/09/20 12:36:00;;;;;;;2.00;1.30;;;22.00;46.00;;;;;;5013337;28;20612;-72
2022/09/20 12:38:36;;;;;;;2.55;1.42;;;22.00;45.90;;;;;;5012476;28;20231;-72
2022/09/20 12:41:07;;;;;;;1.58;1.20;;;22.00;46.00;;;;;;5015015;28;20188;-72
2022/09/20 12:43:34;;;;;;;2.83;1.40;;;22.00;46.10;;;;;;5013294;28;20197;-72
2022/09/20 12:46:01;;;;;;;2.33;1.33;;;22.00;46.10;;;;;;5013115;28;20200;-72
2022/09/20 12:48:28;;;;;;;2.22;1.33;;;22.10;46.10;;;;;;5013855;28;20227;-72
2022/09/20 12:54:00;;;;;;;1.92;1.40;;;22.10;46.00;;;;;;5013728;28;20278;-72
2022/09/20 12:56:27;;;;;;;2.35;1.23;;;22.10;46.20;;;;;;5013070;28;20224;-72
2022/09/20 12:58:55;;;;;;;1.45;1.35;;;22.10;45.90;;;;;;5012840;28;20266;-72
2022/09/20 13:01:30;;;;;;;2.47;1.38;;;22.10;46.00;;;;;;5012912;28;20273;-72
2022/09/20 13:04:37;;;;;;;1.92;1.20;;;22.10;45.80;;;;;;5012899;28;20206;-72
2022/09/20 13:07:32;;;;;;;1.73;1.40;;;22.10;46.00;;;;;;5012792;28;20255;-72
2022/09/20 13:10:00;;;;;;;2.22;1.20;;;22.10;45.80;;;;;;5012767;28;20220;-72
2022/09/20 13:12:27;;;;;;;1.60;1.38;;;22.10;45.90;;;;;;5012720;28;20306;-72
2022/09/20 13:14:54;;;;;;;2.13;1.40;;;22.10;45.70;;;;;;5013407;28;20201;-72
2022/09/20 13:17:24;;;;;;;1.65;1.20;;;22.10;45.80;;;;;;5013993;28;20197;-72
2022/09/20 13:19:52;;;;;;;1.35;1.20;;;22.10;45.80;;;;;;5012723;28;20311;-72
2022/09/20 13:22:22;;;;;;;2.42;1.08;;;22.10;45.70;;;;;;5014173;28;20277;-72
2022/09/20 13:24:53;;;;;;;2.08;1.50;;;22.10;45.80;;;;;;5012787;28;20699;-72
2022/09/20 13:27:22;;;;;;;2.60;1.30;;;22.10;45.80;;;;;;5013172;28;20658;-72
2022/09/20 13:29:49;;;;;;;1.80;1.17;;;22.00;45.80;;;;;;5012660;28;20220;-72
2022/09/20 13:32:17;;;;;;;1.60;1.25;;;22.00;45.80;;;;;;5013264;28;20255;-72
2022/09/20 13:34:45;;;;;;;2.17;1.30;;;22.00;45.90;;;;;;5012571;28;20219;-72
2022/09/20 13:37:19;;;;;;;1.63;1.27;;;22.00;45.90;;;;;;5012565;28;20235;-72
2022/09/20 13:39:47;;;;;;;1.95;1.20;;;22.00;46.00;;;;;;5013354;28;20212;-72